Home > Products > Valid Products > MTR

000
SAUS41 KCAR 271016
MTR40B
METAR K40B 271016Z AUTO VRB02KT 02/02 A2958 RMK AO1 SLP032
     T00240020 55002 P0001





000
SAUS41 KCAR 270957
MTRGNR
METAR KGNR 270956Z AUTO 32008KT 01/01 A2952 RMK AO1 SLP008 T00060006





000
SAUS41 KCAR 270916
MTR40B
METAR K40B 270916Z AUTO 00000KT 02/02 A2957 RMK AO1 SLP027
     T00220020 57008 60000





000
SAUS41 KCAR 270916
MTR40B
METAR K40B 270916Z AUTO 00000KT 02/02 A2957 RMK AO1 SLP027
     T00220020 57008 60000





000
SAUS41 KCAR 270858
MTRGNR
METAR KGNR 270856Z AUTO 33009KT 01/01 A2952 RMK AO1 SLP008 T00060006
56009





000
SAUS41 KCAR 270816
MTR40B
METAR K40B 270816Z AUTO 00000KT 02/02 A2958 RMK AO1 SLP030
     T00210019 57006 P0000





000
SAUS41 KCAR 270757
MTRGNR
METAR KGNR 270756Z AUTO VRB04KT 01/01 A2953 RMK AO1 SLP010 T00060006





000
SAUS41 KCAR 270757
MTRGNR
METAR KGNR 270756Z AUTO VRB04KT 01/01 A2953 RMK AO1 SLP010 T00060006





000
SAUS41 KCAR 270716
MTR40B
METAR K40B 270716Z AUTO 00000KT 02/02 A2959 RMK AO1 SLP033
     T00190016 57007





000
SAUS41 KCAR 270716
MTR40B
METAR K40B 270716Z AUTO 00000KT 02/02 A2959 RMK AO1 SLP033
     T00190016 57007





000
SAUS41 KCAR 270658
MTRGNR
METAR KGNR 270656Z AUTO 33009KT 01/01 A2954 RMK AO1 SLP014 T00060006





000
SAUS41 KCAR 270658
MTRGNR
METAR KGNR 270656Z AUTO 33009KT 01/01 A2954 RMK AO1 SLP014 T00060006





000
SAUS41 KCAR 270616
MTR40B
METAR K40B 270616Z AUTO 00000KT 02/01 A2959 RMK AO1 SLP034
     T00170014 10033 20012 57006 60004





000
SAUS41 KCAR 270616
MTR40B
METAR K40B 270616Z AUTO 00000KT 02/01 A2959 RMK AO1 SLP034
     T00170014 10033 20012 57006 60004





000
SAUS41 KCAR 270557
MTRGNR
METAR KGNR 270556Z AUTO 00000KT 01/01 A2955 RMK AO1 SLP017 60008
T00060006 10033 20006 56004





000
SAUS41 KCAR 270516
MTR40B
METAR K40B 270516Z AUTO 00000KT 01/01 A2960 RMK AO1 SLP035
     T00150011 400950013 57006 P0000





000
SAUS41 KCAR 270516
MTR40B
METAR K40B 270516Z AUTO 00000KT 01/01 A2960 RMK AO1 SLP035
     T00150011 400950013 57006 P0000





000
SAUS41 KCAR 270458
MTRGNR
METAR KGNR 270456Z AUTO 32009KT 01/01 A2955 RMK AO1 SLP016 T00110011
400780011





000
SAUS41 KCAR 270458
MTRGNR
METAR KGNR 270456Z AUTO 32009KT 01/01 A2955 RMK AO1 SLP016 T00110011
400780011





000
SAUS41 KCAR 270416
MTR40B
METAR K40B 270416Z AUTO VRB02KT 02/01 A2961 RMK AO1 SLP038
     T00170013 57006 P0001





000
SAUS41 KCAR 270416
MTR40B
METAR K40B 270416Z AUTO VRB02KT 02/01 A2961 RMK AO1 SLP038
     T00170013 57006 P0001





000
SAUS41 KCAR 270357
MTRGNR
METAR KGNR 270356Z AUTO 32006KT 02/01 A2955 RMK AO1 SLP021 T00170011





000
SAUS41 KCAR 270316
MTR40B
METAR K40B 270316Z AUTO 00000KT 02/01 A2961 RMK AO1 SLP038
     T00170013 58004 P0001 60002





000
SAUS41 KCAR 270257
MTRGNR
METAR KGNR 270256Z AUTO 33007KT 02/02 A2956 RMK AO1 SLP022 P0002
60008 T00220017 58003





000
SAUS41 KCAR 270216
MTR40B
METAR K40B 270216Z AUTO 00000KT 02/01 A2962 RMK AO1 SLP040
     T00190014 50001 P0001





000
SAUS41 KCAR 270216
MTR40B
METAR K40B 270216Z AUTO 00000KT 02/01 A2962 RMK AO1 SLP040
     T00190014 50001 P0001





000
SAUS41 KCAR 270157
MTRGNR
METAR KGNR 270156Z AUTO 33008KT 03/02 A2956 RMK AO1 SLP025 P0004
T00330022





000
SAUS41 KCAR 270157
MTRGNR
METAR KGNR 270156Z AUTO 33008KT 03/02 A2956 RMK AO1 SLP025 P0004
T00330022





000
SAUS41 KCAR 270116
MTR40B
METAR K40B 270116Z AUTO VRB03KT 03/02 A2962 RMK AO1 SLP042
     T00260019 52006 P0001





000
SAUS41 KCAR 270116
MTR40B
METAR K40B 270116Z AUTO VRB03KT 03/02 A2962 RMK AO1 SLP042
     T00260019 52006 P0001





000
SAUS41 KCAR 270058
MTRGNR
METAR KGNR 270056Z AUTO 32009KT 03/03 A2957 RMK AO1 SLP027 P0002
T00330028





000
SAUS41 KCAR 270058
MTRGNR
METAR KGNR 270056Z AUTO 32009KT 03/03 A2957 RMK AO1 SLP027 P0002
T00330028





000
SAUS41 KCAR 270016
MTR40B
METAR K40B 270016Z AUTO VRB04KT 03/01 A2962 RMK AO1 SLP041
     T00330015 10095 20033 52004 60001





000
SAUS41 KCAR 270016
MTR40B
METAR K40B 270016Z AUTO VRB04KT 03/01 A2962 RMK AO1 SLP041
     T00330015 10095 20033 52004 60001





000
SAUS41 KCAR 262357
MTRGNR
METAR KGNR 262356Z AUTO VRB06KT 03/03 A2957 RMK AO1 SLP026 60004
T00330033 10072 20033 53001





000
SAUS41 KCAR 262357
MTRGNR
METAR KGNR 262356Z AUTO VRB06KT 03/03 A2957 RMK AO1 SLP026 60004
T00330033 10072 20033 53001





000
SAUS41 KCAR 262316
MTR40B
METAR K40B 262316Z AUTO VRB02KT 04/02 A2961 RMK AO1 SLP038
     T00450019 52003





000
SAUS41 KCAR 262258
MTRGNR
METAR KGNR 262256Z AUTO 33010KT 04/03 A2957 RMK AO1 SLP026 P0001
T00440033





000
SAUS41 KCAR 262258
MTRGNR
METAR KGNR 262256Z AUTO 33010KT 04/03 A2957 RMK AO1 SLP026 P0001
T00440033





000
SAUS41 KCAR 262216
MTR40B
METAR K40B 262216Z AUTO VRB05G15KT 06/02 A2961 RMK AO1 SLP036
     T00600024 51004





000
SAUS41 KCAR 262216
MTR40B
METAR K40B 262216Z AUTO VRB05G15KT 06/02 A2961 RMK AO1 SLP036
     T00600024 51004





000
SAUS41 KCAR 262157
MTRGNR
METAR KGNR 262156Z AUTO 32007KT 04/03 A2956 RMK AO1 SLP024 P0002
T00440033





000
SAUS41 KCAR 262157
MTRGNR
METAR KGNR 262156Z AUTO 32007KT 04/03 A2956 RMK AO1 SLP024 P0002
T00440033





000
SAUS41 KCAR 262116
MTR40B
METAR K40B 262116Z AUTO VRB04G14KT 07/03 A2961 RMK AO1 SLP038
     T00670030 53003 P0000 60001





000
SAUS41 KCAR 262057
MTRGNR
METAR KGNR 262056Z AUTO VRB06KT 06/03 A2957 RMK AO1 SLP024 60001
T00610028 55000





000
SAUS41 KCAR 262057
MTRGNR
METAR KGNR 262056Z AUTO VRB06KT 06/03 A2957 RMK AO1 SLP024 60001
T00610028 55000





000
SAUS41 KCAR 262016
MTR40B
METAR K40B 262016Z AUTO VRB05G11KT 06/04 A2961 RMK AO1 SLP037
     T00640040 55001





000
SAUS41 KCAR 261958
MTRGNR
METAR KGNR 261956Z AUTO 34013G18KT 07/03 A2956 RMK AO1 SLP022
T00670028





000
SAUS41 KCAR 261916
MTR40B
METAR K40B 261916Z AUTO VRB06G12KT 08/04 A2959 RMK AO1 SLP034
     T00850036 57004 P0000





000
SAUS41 KCAR 261857
MTRGNR
METAR KGNR 261856Z AUTO 01009KT 07/04 A2956 RMK AO1 SLP021 P0001
T00670039





000
SAUS41 KCAR 261857
MTRGNR
METAR KGNR 261856Z AUTO 01009KT 07/04 A2956 RMK AO1 SLP021 P0001
T00670039





000
SAUS41 KCAR 261816
MTR40B
METAR K40B 261816Z AUTO VRB03G11KT 07/04 A2960 RMK AO1 SLP037
     T00710045 10077 20040 57004 P0001 60001





000
SAUS41 KCAR 261758
MTRGNR
METAR KGNR 261756Z AUTO 31006KT 07/02 A2957 RMK AO1 SLP023 60001
T00720022 10078 20017 56007





000
SAUS41 KCAR 261758
MTRGNR
METAR KGNR 261756Z AUTO 31006KT 07/02 A2957 RMK AO1 SLP023 60001
T00720022 10078 20017 56007





000
SAUS41 KCAR 261716
MTR40B
METAR K40B 261716Z AUTO VRB04G12KT 06/02 A2960 RMK AO1 SLP038
     T00590025 57004





000
SAUS41 KCAR 261716
MTR40B
METAR K40B 261716Z AUTO VRB04G12KT 06/02 A2960 RMK AO1 SLP038
     T00590025 57004





000
SAUS41 KCAR 261659
MTRGNR
METAR KGNR 261656Z AUTO 32009KT 07/03 A2957 RMK AO1 SLP024 T00720028





000
SAUS41 KCAR 261616
MTR40B
METAR K40B 261616Z AUTO 00000KT 07/03 A2960 RMK AO1 SLP038
     T00650034 58003 P0001





000
SAUS41 KCAR 261616
MTR40B
METAR K40B 261616Z AUTO 00000KT 07/03 A2960 RMK AO1 SLP038
     T00650034 58003 P0001





000
SAUS41 KCAR 261558
MTRGNR
METAR KGNR 261556Z AUTO 34007KT 04/02 A2958 RMK AO1 SLP031 T00440022





000
SAUS41 KCAR 261516
MTR40B
METAR K40B 261516Z AUTO VRB04KT 06/03 A2961 RMK AO1 SLP043
     T00560029 50003





000
SAUS41 KCAR 261516
MTR40B
METAR K40B 261516Z AUTO VRB04KT 06/03 A2961 RMK AO1 SLP043
     T00560029 50003





000
SAUS41 KCAR 261457
MTRGNR
METAR KGNR 261456Z AUTO 35007KT 04/02 A2959 RMK AO1 SLP033 60001
T00390022 50002





000
SAUS41 KCAR 261416
MTR40B
METAR K40B 261416Z AUTO VRB02KT 07/04 A2961 RMK AO1 SLP044
     T00650038 52003





000
SAUS41 KCAR 261357
MTRGNR
METAR KGNR 261356Z AUTO 33008KT 03/02 A2959 RMK AO1 SLP036 T00280022





000
SAUS41 KCAR 261316
MTR40B
METAR K40B 261316Z AUTO VRB04KT 05/02 A2961 RMK AO1 SLP043
     T00450023 54001





000
SAUS41 KCAR 261257
MTRGNR
METAR KGNR 261256Z AUTO 33005KT 02/02 A2959 RMK AO1 SLP034 P0001
T00220017





000
SAUS41 KCAR 261257
MTRGNR
METAR KGNR 261256Z AUTO 33005KT 02/02 A2959 RMK AO1 SLP034 P0001
T00220017





000
SAUS41 KCAR 261216
MTR40B
METAR K40B 261216Z AUTO VRB02KT 04/03 A2960 RMK AO1 SLP040
     T00400029 10042 20013 51002 P0001 60003 70007





000
SAUS41 KCAR 261216
MTR40B
METAR K40B 261216Z AUTO VRB02KT 04/03 A2960 RMK AO1 SLP040
     T00400029 10042 20013 51002 P0001 60003 70007





000
SAUS41 KCAR 261157
MTRGNR
METAR KGNR 261156Z AUTO 32007KT 02/02 A2958 RMK AO1 SLP033 70002
T00220017 10022 20011 53005





000
SAUS41 KCAR 261157
MTRGNR
METAR KGNR 261156Z AUTO 32007KT 02/02 A2958 RMK AO1 SLP033 70002
T00220017 10022 20011 53005





000
SAUS41 KCAR 261116
MTR40B
METAR K40B 261116Z AUTO 00000KT 03/03 A2961 RMK AO1 SLP041
     T00300029 52005 P0001





000
SAUS41 KCAR 261116
MTR40B
METAR K40B 261116Z AUTO 00000KT 03/03 A2961 RMK AO1 SLP041
     T00300029 52005 P0001





000
SAUS41 KCAR 261058
MTRGNR
METAR KGNR 261056Z AUTO 32008KT 02/01 A2958 RMK AO1 SLP030 T00170011





000
SAUS41 KCAR 261058
MTRGNR
METAR KGNR 261056Z AUTO 32008KT 02/01 A2958 RMK AO1 SLP030 T00170011





000
SAUS41 KCAR 261016
MTR40B
METAR K40B 261016Z AUTO 00000KT 02/02 A2961 RMK AO1 SLP041
     T00170016 53002 P0001





000
SAUS41 KCAR 261016
MTR40B
METAR K40B 261016Z AUTO 00000KT 02/02 A2961 RMK AO1 SLP041
     T00170016 53002 P0001





000
SAUS41 KCAR 260957
MTRGNR
METAR KGNR 260956Z AUTO 32008KT 01/01 A2957 RMK AO1 SLP027 T00110006





000
SAUS41 KCAR 260916
MTR40B
METAR K40B 260916Z AUTO 00000KT 02/01 A2959 RMK AO1 SLP037
     T00160014 55007 P0000 60000





000
SAUS41 KCAR 260916
MTR40B
METAR K40B 260916Z AUTO 00000KT 02/01 A2959 RMK AO1 SLP037
     T00160014 55007 P0000 60000





000
SAUS41 KCAR 260858
MTRGNR
METAR KGNR 260856Z AUTO 33009KT 01/01 A2957 RMK AO1 SLP026 T00110006
56009





000
SAUS41 KCAR 260858
MTRGNR
METAR KGNR 260856Z AUTO 33009KT 01/01 A2957 RMK AO1 SLP026 T00110006
56009





000
SAUS41 KCAR 260816
MTR40B
METAR K40B 260816Z AUTO 00000KT 02/02 A2959 RMK AO1 SLP036
     T00180016 57012





000
SAUS41 KCAR 260757
MTRGNR
METAR KGNR 260756Z AUTO 32006KT 01/01 A2957 RMK AO1 SLP026 T00110006





000
SAUS41 KCAR 260716
MTR40B
METAR K40B 260716Z AUTO 00000KT 02/02 A2960 RMK AO1 SLP037
     T00170015 58010





000
SAUS41 KCAR 260716
MTR40B
METAR K40B 260716Z AUTO 00000KT 02/02 A2960 RMK AO1 SLP037
     T00170015 58010





000
SAUS41 KCAR 260658
MTRGNR
METAR KGNR 260656Z AUTO VRB03KT 01/01 A2959 RMK AO1 SLP033 T00110006





000
SAUS41 KCAR 260658
MTRGNR
METAR KGNR 260656Z AUTO VRB03KT 01/01 A2959 RMK AO1 SLP033 T00110006





000
SAUS41 KCAR 260616
MTR40B
METAR K40B 260616Z AUTO 00000KT 02/02 A2961 RMK AO1 SLP043
     T00180015 10029 20016 57008 60000





000
SAUS41 KCAR 260616
MTR40B
METAR K40B 260616Z AUTO 00000KT 02/02 A2961 RMK AO1 SLP043
     T00180015 10029 20016 57008 60000





000
SAUS41 KCAR 260557
MTRGNR
METAR KGNR 260556Z AUTO 32005KT 01/01 A2960 RMK AO1 SLP036 P0001
60001 T00110006 10017 20006 56006





000
SAUS41 KCAR 260557
MTRGNR
METAR KGNR 260556Z AUTO 32005KT 01/01 A2960 RMK AO1 SLP036 P0001
60001 T00110006 10017 20006 56006





000
SAUS41 KCAR 260516
MTR40B
METAR K40B 260516Z AUTO 00000KT 02/01 A2963 RMK AO1 SLP047
     T00180014 400671006 57004 P0000





000
SAUS41 KCAR 260516
MTR40B
METAR K40B 260516Z AUTO 00000KT 02/01 A2963 RMK AO1 SLP047
     T00180014 400671006 57004 P0000





000
SAUS41 KCAR 260458
MTRGNR
METAR KGNR 260456Z AUTO 32008KT 01/01 A2961 RMK AO1 SLP039 T00110006
400671022





000
SAUS41 KCAR 260416
MTR40B
METAR K40B 260416Z AUTO 00000KT 02/01 A2963 RMK AO1 SLP047
     T00180012 57007





000
SAUS41 KCAR 260416
MTR40B
METAR K40B 260416Z AUTO 00000KT 02/01 A2963 RMK AO1 SLP047
     T00180012 57007





000
SAUS41 KCAR 260358
MTRGNR
METAR KGNR 260356Z AUTO 31006KT 01/01 A2960 RMK AO1 SLP038 T00110006





000
SAUS41 KCAR 260316
MTR40B
METAR K40B 260316Z AUTO 00000KT 02/01 A2964 RMK AO1 SLP050
     T00220005 57003





000
SAUS41 KCAR 260316
MTR40B
METAR K40B 260316Z AUTO 00000KT 02/01 A2964 RMK AO1 SLP050
     T00220005 57003





000
SAUS41 KCAR 260258
MTRGNR
METAR KGNR 260256Z AUTO 32008KT 02/01 A2961 RMK AO1 SLP043 T00170006
58002





000
SAUS41 KCAR 260258
MTRGNR
METAR KGNR 260256Z AUTO 32008KT 02/01 A2961 RMK AO1 SLP043 T00170006
58002





000
SAUS41 KCAR 260216
MTR40B
METAR K40B 260216Z AUTO 00000KT 02/00 A2964 RMK AO1 SLP051
     T00240004 50000





000
SAUS41 KCAR 260157
MTRGNR
METAR KGNR 260156Z AUTO 32006KT 02/00 A2962 RMK AO1 SLP046 T00170000





000
SAUS41 KCAR 260157
MTRGNR
METAR KGNR 260156Z AUTO 32006KT 02/00 A2962 RMK AO1 SLP046 T00170000





000
SAUS41 KCAR 260116
MTR40B
METAR K40B 260116Z AUTO 00000KT 03/00 A2965 RMK AO1 SLP055
     T00260005 52007





000
SAUS41 KCAR 260058
MTRGNR
METAR KGNR 260056Z AUTO 00000KT 01/00 A2963 RMK AO1 SLP048 T00110000





000
SAUS41 KCAR 260016
MTR40B
METAR K40B 260016Z AUTO VRB03KT 03/01 A2965 RMK AO1 SLP054
     T00290006 10067 20024 52007 60002





000
SAUS41 KCAR 260016
MTR40B
METAR K40B 260016Z AUTO VRB03KT 03/01 A2965 RMK AO1 SLP054
     T00290006 10067 20024 52007 60002





000
SAUS41 KCAR 252357
MTRGNR
METAR KGNR 252356Z AUTO VRB03KT 01/00 A2962 RMK AO1 SLP047 60001
T00110000 10067 20011 53003





000
SAUS41 KCAR 252357
MTRGNR
METAR KGNR 252356Z AUTO VRB03KT 01/00 A2962 RMK AO1 SLP047 60001
T00110000 10067 20011 53003





000
SAUS41 KCAR 252316
MTR40B
METAR K40B 252316Z AUTO VRB04KT 04/01 A2964 RMK AO1 SLP052
     T00370006 55000





000
SAUS41 KCAR 252316
MTR40B
METAR K40B 252316Z AUTO VRB04KT 04/01 A2964 RMK AO1 SLP052
     T00370006 55000





000
SAUS41 KCAR 252258
MTRGNR
METAR KGNR 252256Z AUTO 31004KT 03/01 A2962 RMK AO1 SLP045 T00280006





000
SAUS41 KCAR 252216
MTR40B
METAR K40B 252216Z AUTO VRB03KT 06/01 A2963 RMK AO1 SLP048
     T00580011 57003





000
SAUS41 KCAR 252216
MTR40B
METAR K40B 252216Z AUTO VRB03KT 06/01 A2963 RMK AO1 SLP048
     T00580011 57003





000
SAUS41 KCAR 252157
MTRGNR
METAR KGNR 252156Z AUTO 33007KT 04/M01 A2961 RMK AO1 SLP042
T00391006





000
SAUS41 KCAR 252116
MTR40B
METAR K40B 252116Z AUTO VRB03KT 06/01 A2963 RMK AO1 SLP048
     T00570009 58004 P0000 60002





000
SAUS41 KCAR 252057
MTRGNR
METAR KGNR 252056Z AUTO 33008KT 04/01 A2961 RMK AO1 SLP043 P0001
60001 T00390006 53003





000
SAUS41 KCAR 252016
MTR40B
METAR K40B 252016Z AUTO VRB02KT 04/01 A2964 RMK AO1 SLP054
     T00350014 54001 P0001





000
SAUS41 KCAR 251958
MTRGNR
METAR KGNR 251956Z AUTO 32005KT 04/01 A2961 RMK AO1 SLP041 T00390006





000
SAUS41 KCAR 251916
MTR40B
METAR K40B 251916Z AUTO VRB05KT 05/02 A2964 RMK AO1 SLP053
     T00460025 51004 P0000





000
SAUS41 KCAR 251857
MTRGNR
METAR KGNR 251856Z AUTO 31006KT 05/02 A2960 RMK AO1 SLP039 T00500022





000
SAUS41 KCAR 251857
MTRGNR
METAR KGNR 251856Z AUTO 31006KT 05/02 A2960 RMK AO1 SLP039 T00500022





000
SAUS41 KCAR 251816
MTR40B
METAR K40B 251816Z AUTO VRB02KT 05/02 A2964 RMK AO1 SLP054
     T00470025 10049 20010 52004 60001





000
SAUS41 KCAR 251758
MTRGNR
METAR KGNR 251756Z AUTO 32007G15KT 05/00 A2960 RMK AO1 SLP040
T00500000 10056 21011 52003





000
SAUS41 KCAR 251716
MTR40B
METAR K40B 251716Z AUTO VRB05KT 04/02 A2964 RMK AO1 SLP054
     T00420020 53005





000
SAUS41 KCAR 251658
MTRGNR
METAR KGNR 251656Z AUTO 34009G17KT 04/M01 A2960 RMK AO1 SLP040
T00441006





000
SAUS41 KCAR 251616
MTR40B
METAR K40B 251616Z AUTO VRB04KT 04/M01 A2963 RMK AO1 SLP050
     T00381008 50002





000
SAUS41 KCAR 251558
MTRGNR
METAR KGNR 251556Z AUTO 33007KT 300V010 04/M01 A2960 RMK AO1 SLP037
T00391006





000
SAUS41 KCAR 251516
MTR40B
METAR K40B 251516Z AUTO 00000KT 03/00 A2963 RMK AO1 SLP052
     T00271003 52008 60001





000
SAUS41 KCAR 251457
MTRGNR
METAR KGNR 251456Z AUTO 32010G17KT 270V340 03/M01 A2959 RMK AO1
SLP038 T00281006 53001





000
SAUS41 KCAR 251416
MTR40B
METAR K40B 251416Z AUTO VRB03KT 02/M01 A2962 RMK AO1 SLP051
     T00191006 52006





000
SAUS41 KCAR 251416
MTR40B
METAR K40B 251416Z AUTO VRB03KT 02/M01 A2962 RMK AO1 SLP051
     T00191006 52006





000
SAUS41 KCAR 251358
MTRGNR
METAR KGNR 251356Z AUTO 32009G16KT 01/M02 A2958 RMK AO1 SLP034
T00061017





000
SAUS41 KCAR 251316
MTR40B
METAR K40B 251316Z AUTO VRB03KT 01/M01 A2962 RMK AO1 SLP048
     T00141009 52009 P0001





000
SAUS41 KCAR 251316
MTR40B
METAR K40B 251316Z AUTO VRB03KT 01/M01 A2962 RMK AO1 SLP048
     T00141009 52009 P0001





000
SAUS41 KCAR 251257
MTRGNR
METAR KGNR 251256Z AUTO 33011KT M01/M02 A2959 RMK AO1 SLP038
T10061022





000
SAUS41 KCAR 251216
MTR40B
METAR K40B 251216Z AUTO 00000KT 01/01 A2961 RMK AO1 SLP045
     T00140008 10014 21006 51011 P0004 60009 70048





000
SAUS41 KCAR 251216
MTR40B
METAR K40B 251216Z AUTO 00000KT 01/01 A2961 RMK AO1 SLP045
     T00140008 10014 21006 51011 P0004 60009 70048





000
SAUS41 KCAR 251157
MTRGNR
METAR KGNR 251156Z AUTO VRB05KT M01/M03 A2959 RMK AO1 SLP038 P0001
60005 70009 T10111028 11011 21022 51014





000
SAUS41 KCAR 251157
MTRGNR
METAR KGNR 251156Z AUTO VRB05KT M01/M03 A2959 RMK AO1 SLP038 P0001
60005 70009 T10111028 11011 21022 51014





000
SAUS41 KCAR 251116
MTR40B
METAR K40B 251116Z AUTO 00000KT 00/00 A2961 RMK AO1 SLP044
     T00040003 52012 P0000





000
SAUS41 KCAR 251116
MTR40B
METAR K40B 251116Z AUTO 00000KT 00/00 A2961 RMK AO1 SLP044
     T00040003 52012 P0000





000
SAUS41 KCAR 251058
MTRGNR
METAR KGNR 251056Z AUTO 31007KT M02/M03 A2958 RMK AO1 SLP033 P0001
T10171028





000
SAUS41 KCAR 251016
MTR40B
METAR K40B 251016Z AUTO 00000KT 00/00 A2959 RMK AO1 SLP039
     T10031003 52008 P0000





000
SAUS41 KCAR 250957
MTRGNR
METAR KGNR 250956Z AUTO 31008KT M02/M03 A2957 RMK AO1 SLP029 P0001
T10221028





000
SAUS41 KCAR 250916
MTR40B
METAR K40B 250916Z AUTO 00000KT 00/00 A2957 RMK AO1 SLP033
     T10041004 52003 P0000 60004





000
SAUS41 KCAR 250857
MTRGNR
METAR KGNR 250856Z AUTO 30007KT 260V360 M02/M03 A2955 RMK AO1 SLP023
P0001 60002 T10221028 56004





000
SAUS41 KCAR 250816
MTR40B
METAR K40B 250816Z AUTO 00000KT 00/00 A2957 RMK AO1 SLP031
     T10031002 52002 P0002





000
SAUS41 KCAR 250816
MTR40B
METAR K40B 250816Z AUTO 00000KT 00/00 A2957 RMK AO1 SLP031
     T10031002 52002 P0002





000
SAUS41 KCAR 250757
MTRGNR
METAR KGNR 250756Z AUTO VRB05G14KT M02/M03 A2955 RMK AO1 SLP022
P0001 T10221033





000
SAUS41 KCAR 250757
MTRGNR
METAR KGNR 250756Z AUTO VRB05G14KT M02/M03 A2955 RMK AO1 SLP022
P0001 T10221033





000
SAUS41 KCAR 250716
MTR40B
METAR K40B 250716Z AUTO VRB02KT 00/00 A2957 RMK AO1 SLP030
     T10011001 54001 P0001





000
SAUS41 KCAR 250716
MTR40B
METAR K40B 250716Z AUTO VRB02KT 00/00 A2957 RMK AO1 SLP030
     T10011001 54001 P0001





000
SAUS41 KCAR 250658
MTRGNR
METAR KGNR 250656Z AUTO VRB05G15KT M02/M03 A2955 RMK AO1 SLP024
T10221033





000
SAUS41 KCAR 250658
MTRGNR
METAR KGNR 250656Z AUTO VRB05G15KT M02/M03 A2955 RMK AO1 SLP024
T10221033





000
SAUS41 KCAR 250616
MTR40B
METAR K40B 250616Z AUTO 00000KT 00/00 A2956 RMK AO1 SLP029
     T10021002 10003 21003 54000 P0001 60015





000
SAUS41 KCAR 250616
MTR40B
METAR K40B 250616Z AUTO 00000KT 00/00 A2956 RMK AO1 SLP029
     T10021002 10003 21003 54000 P0001 60015





000
SAUS41 KCAR 250558
MTRGNR
METAR KGNR 250556Z AUTO 31008KT 260V340 M02/M03 A2956 RMK AO1 SLP026
P0001 60003 T10171033 11011 21017 58005





000
SAUS41 KCAR 250558
MTRGNR
METAR KGNR 250556Z AUTO 31008KT 260V340 M02/M03 A2956 RMK AO1 SLP026
P0001 60003 T10171033 11011 21017 58005





000
SAUS41 KCAR 250516
MTR40B
METAR K40B 250516Z AUTO 00000KT 00/00 A2956 RMK AO1 SLP028
     T10021002 400331002 56005 P0002





000
SAUS41 KCAR 250516
MTR40B
METAR K40B 250516Z AUTO 00000KT 00/00 A2956 RMK AO1 SLP028
     T10021002 400331002 56005 P0002





000
SAUS41 KCAR 250458
MTRGNR
METAR KGNR 250456Z AUTO 30007KT 260V330 M02/M03 A2956 RMK AO1 SLP027
T10171033 400391017





000
SAUS41 KCAR 250458
MTRGNR
METAR KGNR 250456Z AUTO 30007KT 260V330 M02/M03 A2956 RMK AO1 SLP027
T10171033 400391017





000
SAUS41 KCAR 250416
MTR40B
METAR K40B 250416Z AUTO 00000KT 00/00 A2956 RMK AO1 SLP028
     T10011001 57007 P0004





000
SAUS41 KCAR 250357
MTRGNR
METAR KGNR 250356Z AUTO VRB05G17KT M02/M03 A2957 RMK AO1 SLP029
P0001 T10171033





000
SAUS41 KCAR 250316
MTR40B
METAR K40B 250316Z AUTO VRB04G12KT 00/00 A2956 RMK AO1 SLP028
     T00000000 57010 P0004 60008





000
SAUS41 KCAR 250316
MTR40B
METAR K40B 250316Z AUTO VRB04G12KT 00/00 A2956 RMK AO1 SLP028
     T00000000 57010 P0004 60008





000
SAUS41 KCAR 250258
MTRGNR
METAR KGNR 250256Z AUTO VRB05KT M02/M03 A2958 RMK AO1 SLP031 60001
T10171028 58004





000
SAUS41 KCAR 250258
MTRGNR
METAR KGNR 250256Z AUTO VRB05KT M02/M03 A2958 RMK AO1 SLP031 60001
T10171028 58004





000
SAUS41 KCAR 250216
MTR40B
METAR K40B 250216Z AUTO VRB03KT 00/00 A2958 RMK AO1 SLP032
     T00010001 58002 P0002





000
SAUS41 KCAR 250157
MTRGNR
METAR KGNR 250156Z AUTO 29008KT 240V340 M01/M03 A2958 RMK AO1 SLP033
T10111033





000
SAUS41 KCAR 250157
MTRGNR
METAR KGNR 250156Z AUTO 29008KT 240V340 M01/M03 A2958 RMK AO1 SLP033
T10111033





000
SAUS41 KCAR 250116
MTR40B
METAR K40B 250116Z AUTO 00000KT 00/00 A2959 RMK AO1 SLP035
     T00010001 54001 P0002





000
SAUS41 KCAR 250058
MTRGNR
METAR KGNR 250056Z AUTO 30008G14KT 260V340 M01/M03 A2959 RMK AO1
SLP035 P0001 T10111033





000
SAUS41 KCAR 250016
MTR40B
METAR K40B 250016Z AUTO 00000KT 00/00 A2959 RMK AO1 SLP037
     T00020002 10033 20002 52006 P0004 60017





000
SAUS41 KCAR 242357
MTRGNR
METAR KGNR 242356Z AUTO VRB04KT M01/M02 A2959 RMK AO1 SLP036 P0001
60001 T10111022 10028 21011 51007





000
SAUS41 KCAR 242357
MTRGNR
METAR KGNR 242356Z AUTO VRB04KT M01/M02 A2959 RMK AO1 SLP036 P0001
60001 T10111022 10028 21011 51007





000
SAUS41 KCAR 242316
MTR40B
METAR K40B 242316Z AUTO 00000KT 00/00 A2958 RMK AO1 SLP034
     T00030002 51006 P0006





000
SAUS41 KCAR 242316
MTR40B
METAR K40B 242316Z AUTO 00000KT 00/00 A2958 RMK AO1 SLP034
     T00030002 51006 P0006





000
SAUS41 KCAR 242258
MTRGNR
METAR KGNR 242256Z AUTO 31009G17KT 280V350 M01/M03 A2958 RMK AO1
SLP034 T10061033





000
SAUS41 KCAR 242258
MTRGNR
METAR KGNR 242256Z AUTO 31009G17KT 280V350 M01/M03 A2958 RMK AO1
SLP034 T10061033





000
SAUS41 KCAR 242216
MTR40B
METAR K40B 242216Z AUTO 00000KT 00/00 A2959 RMK AO1 SLP034
     T00040002 52011 P0003





000
SAUS41 KCAR 242216
MTR40B
METAR K40B 242216Z AUTO 00000KT 00/00 A2959 RMK AO1 SLP034
     T00040002 52011 P0003





000
SAUS41 KCAR 242157
MTRGNR
METAR KGNR 242156Z AUTO 31009G18KT 270V330 01/M04 A2958 RMK AO1
SLP031 T00061044





000
SAUS41 KCAR 242157
MTRGNR
METAR KGNR 242156Z AUTO 31009G18KT 270V330 01/M04 A2958 RMK AO1
SLP031 T00061044





000
SAUS41 KCAR 242116
MTR40B
METAR K40B 242116Z AUTO VRB04G11KT 01/00 A2958 RMK AO1 SLP031
     T00110005 52008 P0001 60004





000
SAUS41 KCAR 242116
MTR40B
METAR K40B 242116Z AUTO VRB04G11KT 01/00 A2958 RMK AO1 SLP031
     T00110005 52008 P0001 60004





000
SAUS41 KCAR 242057
MTRGNR
METAR KGNR 242056Z AUTO VRB06G20KT 01/M03 A2957 RMK AO1 SLP028
T00111033 53007





000
SAUS41 KCAR 242016
MTR40B
METAR K40B 242016Z AUTO VRB06G12KT 02/01 A2957 RMK AO1 SLP028
     T00170008 53005 P0002





000
SAUS41 KCAR 241957
MTRGNR
METAR KGNR 241956Z AUTO 30008G20KT 260V330 02/M03 A2955 RMK AO1
SLP022 T00221033





000
SAUS41 KCAR 241916
MTR40B
METAR K40B 241916Z AUTO VRB04G13KT 02/01 A2955 RMK AO1 SLP024
     T00190008 54001





000
SAUS41 KCAR 241857
MTRGNR
METAR KGNR 241856Z AUTO 31009G18KT 270V350 02/M03 A2955 RMK AO1
SLP020 T00221028





000
SAUS41 KCAR 241816
MTR40B
METAR K40B 241816Z AUTO VRB06G13KT 02/01 A2955 RMK AO1 SLP023
     T00230013 10028 20014 54001 P0003 60007





000
SAUS41 KCAR 241816
MTR40B
METAR K40B 241816Z AUTO VRB06G13KT 02/01 A2955 RMK AO1 SLP023
     T00230013 10028 20014 54001 P0003 60007





000
SAUS41 KCAR 241758
MTRGNR
METAR KGNR 241756Z AUTO 31010G20KT 280V340 02/M04 A2954 RMK AO1
SLP019 T00221039 10039 20006 53003





000
SAUS41 KCAR 241758
MTRGNR
METAR KGNR 241756Z AUTO 31010G20KT 280V340 02/M04 A2954 RMK AO1
SLP019 T00221039 10039 20006 53003





000
SAUS41 KCAR 241716
MTR40B
METAR K40B 241716Z AUTO VRB02G11KT 02/01 A2955 RMK AO1 SLP023
     T00220014 54001 P0001





000
SAUS41 KCAR 241716
MTR40B
METAR K40B 241716Z AUTO VRB02G11KT 02/01 A2955 RMK AO1 SLP023
     T00220014 54001 P0001





000
SAUS41 KCAR 241658
MTRGNR
METAR KGNR 241656Z AUTO 31009G21KT 260V350 03/M03 A2954 RMK AO1
SLP018 T00331033





000
SAUS41 KCAR 241616
MTR40B
METAR K40B 241616Z AUTO VRB04G12KT 02/01 A2955 RMK AO1 SLP023
     T00190007 57002 P0001





000
SAUS41 KCAR 241616
MTR40B
METAR K40B 241616Z AUTO VRB04G12KT 02/01 A2955 RMK AO1 SLP023
     T00190007 57002 P0001





000
SAUS41 KCAR 241558
MTRGNR
METAR KGNR 241556Z AUTO 29008KT 250V340 03/M03 A2954 RMK AO1 SLP016
T00331033





000
SAUS41 KCAR 241516
MTR40B
METAR K40B 241516Z AUTO VRB04G12KT 02/01 A2955 RMK AO1 SLP024
     T00160007 54001 P0001 60002





000
SAUS41 KCAR 241457
MTRGNR
METAR KGNR 241456Z AUTO 28008G18KT 240V310 03/M03 A2954 RMK AO1
SLP017 T00281033 50003





000
SAUS41 KCAR 241457
MTRGNR
METAR KGNR 241456Z AUTO 28008G18KT 240V310 03/M03 A2954 RMK AO1
SLP017 T00281033 50003





000
SAUS41 KCAR 241416
MTR40B
METAR K40B 241416Z AUTO VRB03KT 02/02 A2955 RMK AO1 SLP024
     T00250015 52002 P0000





000
SAUS41 KCAR 241416
MTR40B
METAR K40B 241416Z AUTO VRB03KT 02/02 A2955 RMK AO1 SLP024
     T00250015 52002 P0000





000
SAUS41 KCAR 241358
MTRGNR
METAR KGNR 241356Z AUTO 30007G18KT 270V330 02/M03 A2954 RMK AO1
SLP017 T00221028





000
SAUS41 KCAR 241358
MTRGNR
METAR KGNR 241356Z AUTO 30007G18KT 270V330 02/M03 A2954 RMK AO1
SLP017 T00221028





000
SAUS41 KCAR 241316
MTR40B
METAR K40B 241316Z AUTO VRB04KT 02/00 A2955 RMK AO1 SLP025
     T00160004 52002





000
SAUS41 KCAR 241257
MTRGNR
METAR KGNR 241256Z AUTO 31007G16KT 260V350 02/M02 A2953 RMK AO1
SLP015 T00171022





000
SAUS41 KCAR 241257
MTRGNR
METAR KGNR 241256Z AUTO 31007G16KT 260V350 02/M02 A2953 RMK AO1
SLP015 T00171022





000
SAUS41 KCAR 241216
MTR40B
METAR K40B 241216Z AUTO VRB03KT 02/00 A2955 RMK AO1 SLP023
     T00210003 10021 20003 54001 P0001 60002 70021





000
SAUS41 KCAR 241216
MTR40B
METAR K40B 241216Z AUTO VRB03KT 02/00 A2955 RMK AO1 SLP023
     T00210003 10021 20003 54001 P0001 60002 70021





000
SAUS41 KCAR 241157
MTRGNR
METAR KGNR 241156Z AUTO 31007KT 01/M01 A2953 RMK AO1 SLP015 70002
T00061011 10006 21006 51007





000
SAUS41 KCAR 241157
MTRGNR
METAR KGNR 241156Z AUTO 31007KT 01/M01 A2953 RMK AO1 SLP015 70002
T00061011 10006 21006 51007





000
SAUS41 KCAR 241116
MTR40B
METAR K40B 241116Z AUTO VRB03KT 01/01 A2955 RMK AO1 SLP022
     T00110008 52003 P0001





000
SAUS41 KCAR 241057
MTRGNR
METAR KGNR 241056Z AUTO VRB05KT 00/M01 A2952 RMK AO1 SLP013
T00001011





000
SAUS41 KCAR 241057
MTRGNR
METAR KGNR 241056Z AUTO VRB05KT 00/M01 A2952 RMK AO1 SLP013
T00001011





    US Dept of Commerce
    National Oceanic and Atmospheric Administration
    National Weather Service
    1325 East West Highway
    Silver Spring, MD 20910
    Page Author: NWS Internet Services Team
Disclaimer
Information Quality
Credits
Glossary
Privacy Policy
Freedom of Information Act (FOIA)
About Us
Career Opportunities